Portada
METAR-TAF:

METAR-TAF

Aeropuertos :

Aeropuerto Internacional de Baréin

Baréin, Bahréin

latitud: 26-16N, longitud: 050-39E, altitud: 2 m

Observación

El informe se hizo hace 22 minutos, a las 06:00 UTC
Viento 16 kt del noroeste
Temperatura 17°C
Humedad 45%
Presión 1022 hPa
Visibilidad: 8000 m
Escasas nubes a una altura de 3000 ft

METAR: OBBI 190600Z 32016KT 8000 FEW030 17/05 Q1022 NOSIG

Hora: 09:22 (06:22 UTC)

Pronóstico

El informe se hizo hace 1 hora y 22 minutos, a las 05:00 UTC
Pronóstico válido del 19 a las 06 UTC al 20 a las 12 UTC
Viento 17 kt del norte-noroeste con ráfagas de 27 kt
Visibilidad: 8000 m
Nubes dispersas a una altura de 2500 ft

TAF: OBBI 190500Z 1906/2012 33017G27KT 8000 SCT025

Observaciones y pronósticos meteorológicos de más de 4000 aeropuertos (mensajes METAR y TAF).

Los puntos amarillos y rojos representan las estaciones disponibles.

Ponga el ratón en el punto deseado para ver el nombre de la estación.

Haga clic para ver las observaciones y los pronósticos meteorológicos.

Para cambiar el mapa : haga clic en los botones verdes con una cruz de color negro para hacer un zoom, en el botón verde con un guión para alejar o en las flechas verdes para mapas adyacentes.


METAR-TAF: